Weather at Hatzerim Air Base

Public forecast

Using degrees Celsius for public forecast. Weather courtesy of forecast.io.

Closest aviation weather report (METAR) to Hatzerim Air Base

Report is more than 6 hours old.

Closest report is El Arish International Airport, 43.6 nm (80.7 km) WSW. Retrieved 2021/10/26 12:00 UTC (2 days ago):

HEAR 261200Z 01006KT CAVOK 27/16 Q1014 NOSIG

Closest aviation forecast (TAF) to Hatzerim Air Base

Forecast is more than 12 hours old.

Closest forecast is El Gora Airport, 28.9 nm (53.5 km) WSW. Retrieved 2021/10/27 18:00 UTC (16 hours ago):

TAF HEGR 271700Z 2718/2824 32008KT 9999 SCT025 TEMPO 2800/2806 VRB03KT 3000 BR